Time;durP1;ratioP1;P1;durP2;ratioP2;P2;SDS_P1;SDS_P2;PMS_P1;PMS_P2;Temp;Humidity;BMP_temperature;BMP_pressure;BME280_temperature;BME280_humidity;BME280_pressure;Samples;Min_cycle;Max_cycle;Signal;HPM_P1;HPM_P2
2022/03/20 00:00:37;;;;;;;13.17;4.53;;;;;;;;;;5049131;28;20041;-68
2022/03/20 00:03:06;;;;;;;7.83;4.33;;;;;;;;;;5050719;28;20171;-68
2022/03/20 00:05:34;;;;;;;10.80;5.37;;;;;;;;;;5050476;28;20048;-68
2022/03/20 00:08:00;;;;;;;17.07;6.13;;;;;;;;;;5050258;28;20052;-68
2022/03/20 00:10:26;;;;;;;10.37;5.27;;;;;;;;;;5049777;28;20045;-68
2022/03/20 00:12:53;;;;;;;9.90;5.40;;;;;;;;;;5049565;28;20379;-68
2022/03/20 00:15:20;;;;;;;9.57;4.47;;;;;;;;;;5049918;28;20577;-68
2022/03/20 00:17:46;;;;;;;11.73;5.33;;;;;;;;;;5049425;28;20523;-68
2022/03/20 00:20:12;;;;;;;9.37;5.40;;;;;;;;;;5049892;28;20170;-68
2022/03/20 00:22:38;;;;;;;7.60;4.80;;;;;;;;;;5049127;28;20052;-68
2022/03/20 00:25:05;;;;;;;8.40;4.73;;;;;;;;;;5049962;28;20060;-68
2022/03/20 00:27:32;;;;;;;14.13;5.87;;;;;;;;;;5049852;28;20049;-68
2022/03/20 00:29:58;;;;;;;13.00;4.97;;;;;;;;;;5049613;28;20559;-68
2022/03/20 00:32:24;;;;;;;13.27;5.50;;;;;;;;;;5049598;28;20438;-68
2022/03/20 00:34:50;;;;;;;10.80;4.90;;;;;;;;;;5049553;28;20057;-68
2022/03/20 00:37:16;;;;;;;15.37;5.60;;;;;;;;;;5049260;28;20076;-69
2022/03/20 00:39:42;;;;;;;10.83;5.17;;;;;;;;;;5049360;28;20384;-68
2022/03/20 00:42:09;;;;;;;13.27;6.40;;;;;;;;;;5049250;28;20099;-68
2022/03/20 00:44:35;;;;;;;10.23;5.40;;;;;;;;;;5049487;28;20052;-68
2022/03/20 00:47:01;;;;;;;11.83;4.87;;;;;;;;;;5049401;28;20060;-68
2022/03/20 00:49:27;;;;;;;9.87;5.50;;;;;;;;;;5048092;28;20453;-68
2022/03/20 00:51:53;;;;;;;21.27;7.17;;;;;;;;;;5049218;28;20056;-68
2022/03/20 00:54:19;;;;;;;15.53;6.77;;;;;;;;;;5049059;28;20089;-68
2022/03/20 00:56:46;;;;;;;11.60;5.50;;;;;;;;;;5049103;28;20061;-68
2022/03/20 00:59:12;;;;;;;15.60;5.60;;;;;;;;;;5049089;28;20084;-68
2022/03/20 01:01:38;;;;;;;13.70;6.13;;;;;;;;;;5049309;28;20045;-68
2022/03/20 01:04:04;;;;;;;11.93;6.37;;;;;;;;;;5034989;28;20049;-68
2022/03/20 01:06:31;;;;;;;11.43;6.63;;;;;;;;;;5041218;28;20495;-68
2022/03/20 01:08:58;;;;;;;16.97;7.00;;;;;;;;;;5049402;28;20049;-68
2022/03/20 01:11:24;;;;;;;12.30;6.50;;;;;;;;;;5048582;28;20131;-68
2022/03/20 01:13:50;;;;;;;12.57;7.57;;;;;;;;;;5049056;28;20064;-68
2022/03/20 01:16:16;;;;;;;15.07;7.03;;;;;;;;;;5049016;28;20044;-68
2022/03/20 01:18:42;;;;;;;11.17;6.53;;;;;;;;;;5048385;28;20044;-68
2022/03/20 01:21:08;;;;;;;10.97;6.70;;;;;;;;;;5048860;28;20049;-68
2022/03/20 01:23:34;;;;;;;17.70;7.23;;;;;;;;;;5048146;28;20122;-68
2022/03/20 01:26:00;;;;;;;22.20;9.80;;;;;;;;;;5048482;28;20670;-68
2022/03/20 01:28:26;;;;;;;14.87;7.10;;;;;;;;;;5048717;28;20044;-68
2022/03/20 01:30:55;;;;;;;21.77;8.40;;;;;;;;;;5048568;28;20044;-68
2022/03/20 01:33:21;;;;;;;17.60;9.00;;;;;;;;;;5048663;28;20064;-68
2022/03/20 01:35:47;;;;;;;12.53;7.20;;;;;;;;;;5048270;28;20132;-68
2022/03/20 01:38:19;;;;;;;15.23;8.33;;;;;;;;;;5047226;28;20147;-68
2022/03/20 01:40:46;;;;;;;17.33;9.17;;;;;;;;;;5048506;28;20056;-68
2022/03/20 01:43:12;;;;;;;17.97;8.43;;;;;;;;;;5048548;28;20496;-68
2022/03/20 01:45:38;;;;;;;18.83;8.67;;;;;;;;;;5048567;28;20045;-68
2022/03/20 01:48:04;;;;;;;17.63;9.43;;;;;;;;;;5043802;28;20518;-69
2022/03/20 01:50:33;;;;;;;20.03;9.67;;;;;;;;;;5038903;28;20048;-68
2022/03/20 01:53:00;;;;;;;19.13;10.07;;;;;;;;;;5048887;28;20042;-68
2022/03/20 01:55:26;;;;;;;16.93;10.03;;;;;;;;;;5048254;28;20095;-68
2022/03/20 01:57:54;;;;;;;14.77;9.23;;;;;;;;;;5048123;28;20156;-68
2022/03/20 02:00:21;;;;;;;16.00;9.10;;;;;;;;;;5048641;28;20107;-68
2022/03/20 02:02:47;;;;;;;18.73;9.77;;;;;;;;;;5048194;28;20069;-68
2022/03/20 02:05:13;;;;;;;19.20;10.70;;;;;;;;;;5048589;28;20049;-68
2022/03/20 02:07:40;;;;;;;16.90;9.63;;;;;;;;;;5048287;28;20037;-68
2022/03/20 02:10:07;;;;;;;22.20;11.60;;;;;;;;;;5048379;28;20044;-68
2022/03/20 02:12:33;;;;;;;15.83;9.10;;;;;;;;;;5048027;28;20052;-68
2022/03/20 02:15:03;;;;;;;20.50;10.63;;;;;;;;;;5048214;28;20041;-68
2022/03/20 02:17:30;;;;;;;14.93;9.07;;;;;;;;;;5047975;28;20037;-68
2022/03/20 02:20:01;;;;;;;17.07;9.33;;;;;;;;;;5048627;28;20124;-68
2022/03/20 02:22:27;;;;;;;15.67;8.60;;;;;;;;;;5048536;28;20094;-68
2022/03/20 02:24:53;;;;;;;20.03;12.03;;;;;;;;;;5047873;28;20052;-68
2022/03/20 02:27:23;;;;;;;17.47;9.23;;;;;;;;;;5048244;28;20060;-68
2022/03/20 02:29:52;;;;;;;19.20;9.43;;;;;;;;;;5048276;28;20052;-68
2022/03/20 02:32:19;;;;;;;16.73;9.17;;;;;;;;;;5046425;28;20053;-68
2022/03/20 02:34:48;;;;;;;21.27;9.53;;;;;;;;;;5048326;28;20102;-68
2022/03/20 02:37:15;;;;;;;17.13;9.80;;;;;;;;;;5051771;28;20045;-68
2022/03/20 02:39:41;;;;;;;17.90;9.63;;;;;;;;;;5067247;28;20288;-68
2022/03/20 02:42:08;;;;;;;21.23;9.27;;;;;;;;;;5051508;28;20287;-68
2022/03/20 02:44:50;;;;;;;22.80;10.43;;;;;;;;;;5051905;28;20053;-68
2022/03/20 02:47:20;;;;;;;19.53;10.60;;;;;;;;;;5051582;28;20291;-68
2022/03/20 02:49:48;;;;;;;15.97;9.87;;;;;;;;;;5051441;28;20303;-68
2022/03/20 02:52:14;;;;;;;21.20;10.07;;;;;;;;;;5051601;28;20292;-68
2022/03/20 02:54:42;;;;;;;15.87;9.70;;;;;;;;;;5051178;28;20056;-68
2022/03/20 02:57:08;;;;;;;21.27;10.27;;;;;;;;;;5049638;28;20291;-68
2022/03/20 02:59:35;;;;;;;18.27;10.20;;;;;;;;;;5051276;28;20052;-68
2022/03/20 03:02:02;;;;;;;19.13;8.70;;;;;;;;;;5050932;28;20491;-68
2022/03/20 03:04:28;;;;;;;20.33;11.23;;;;;;;;;;5051512;28;20298;-67
2022/03/20 03:06:54;;;;;;;20.80;9.53;;;;;;;;;;5051231;28;20048;-68
2022/03/20 03:12:05;;;;;;;20.97;8.90;;;;;;;;;;5051171;28;20287;-68
2022/03/20 03:17:27;;;;;;;18.73;9.77;;;;;;;;;;5051413;28;20049;-68
2022/03/20 03:19:54;;;;;;;18.47;10.93;;;;;;;;;;5049900;28;20053;-68
2022/03/20 03:22:20;;;;;;;22.33;11.03;;;;;;;;;;5051266;28;20389;-68
2022/03/20 03:24:46;;;;;;;17.70;9.83;;;;;;;;;;5050990;28;20099;-68
2022/03/20 03:27:13;;;;;;;20.23;9.63;;;;;;;;;;5035648;28;20292;-68
2022/03/20 03:29:39;;;;;;;24.43;11.40;;;;;;;;;;5040135;28;20808;-68
2022/03/20 03:32:05;;;;;;;20.17;11.03;;;;;;;;;;5051022;28;20818;-68
2022/03/20 03:37:20;;;;;;;21.80;10.50;;;;;;;;;;5050766;28;20761;-68
2022/03/20 03:39:46;;;;;;;21.17;11.27;;;;;;;;;;5050771;28;20693;-68
2022/03/20 03:42:12;;;;;;;21.90;11.30;;;;;;;;;;5050600;28;20275;-67
2022/03/20 03:44:39;;;;;;;18.07;10.53;;;;;;;;;;5050025;28;20302;-68
2022/03/20 03:47:05;;;;;;;21.13;11.07;;;;;;;;;;5050250;28;20295;-68
2022/03/20 03:49:33;;;;;;;18.57;10.93;;;;;;;;;;5050880;28;20310;-68
2022/03/20 03:51:59;;;;;;;19.23;11.17;;;;;;;;;;5050311;28;20288;-68
2022/03/20 03:54:25;;;;;;;20.50;11.70;;;;;;;;;;5050763;28;20312;-68
2022/03/20 03:56:51;;;;;;;17.97;10.87;;;;;;;;;;5050364;28;20045;-68
2022/03/20 03:59:17;;;;;;;23.37;11.20;;;;;;;;;;5050310;28;21119;-68
2022/03/20 04:01:44;;;;;;;19.70;10.73;;;;;;;;;;5050461;28;20283;-68
2022/03/20 04:04:10;;;;;;;22.67;12.67;;;;;;;;;;5050196;28;20288;-68
2022/03/20 04:06:36;;;;;;;19.93;11.90;;;;;;;;;;5050211;28;20295;-68
2022/03/20 04:09:02;;;;;;;26.30;11.20;;;;;;;;;;5050585;28;20998;-68
2022/03/20 04:11:28;;;;;;;20.87;12.17;;;;;;;;;;5050687;28;20283;-68
2022/03/20 04:13:54;;;;;;;23.80;12.33;;;;;;;;;;5042599;28;20295;-68
2022/03/20 04:16:20;;;;;;;23.77;13.07;;;;;;;;;;5050062;28;20292;-68
2022/03/20 04:18:46;;;;;;;20.33;11.60;;;;;;;;;;5050168;28;20526;-68
2022/03/20 04:21:12;;;;;;;21.07;12.17;;;;;;;;;;5049502;28;20049;-68
2022/03/20 04:23:45;;;;;;;20.80;12.63;;;;;;;;;;5049851;28;20290;-68
2022/03/20 04:26:15;;;;;;;21.65;12.05;;;;;;;;;;5049970;28;20283;-68
2022/03/20 04:28:44;;;;;;;20.97;12.20;;;;;;;;;;5049071;28;20564;-68
2022/03/20 04:31:14;;;;;;;23.20;13.37;;;;;;;;;;5049849;28;20288;-67
2022/03/20 04:33:40;;;;;;;22.87;12.73;;;;;;;;;;5049325;28;20299;-67
2022/03/20 04:36:09;;;;;;;19.33;12.30;;;;;;;;;;5049836;28;20288;-67
2022/03/20 04:38:35;;;;;;;23.87;11.80;;;;;;;;;;5049456;28;20284;-68
2022/03/20 04:41:01;;;;;;;24.50;12.50;;;;;;;;;;5049786;28;20044;-68
2022/03/20 04:43:27;;;;;;;19.87;12.07;;;;;;;;;;5049344;28;20413;-68
2022/03/20 04:45:54;;;;;;;21.17;12.70;;;;;;;;;;5049226;28;20045;-68
2022/03/20 04:59:19;;;;;;;21.60;12.23;;;;;;;;;;5048253;28;20161;-68
2022/03/20 05:01:46;;;;;;;24.60;13.33;;;;;;;;;;5049299;28;20056;-68
2022/03/20 05:04:13;;;;;;;25.20;12.57;;;;;;;;;;5049454;28;20303;-68
2022/03/20 05:06:45;;;;;;;22.73;13.80;;;;;;;;;;5048860;28;20056;-68
2022/03/20 05:14:41;;;;;;;23.37;13.87;;;;;;;;;;5048026;28;20326;-68
2022/03/20 05:17:08;;;;;;;30.33;15.60;;;;;;;;;;5048709;28;20311;-67
2022/03/20 05:19:35;;;;;;;27.87;13.57;;;;;;;;;;5048615;28;20337;-68
2022/03/20 05:22:02;;;;;;;22.40;13.63;;;;;;;;;;5047875;28;20288;-67
2022/03/20 05:24:28;;;;;;;30.70;14.90;;;;;;;;;;5049096;28;20041;-67
2022/03/20 05:26:54;;;;;;;23.27;11.67;;;;;;;;;;5048771;28;20283;-67
2022/03/20 05:29:21;;;;;;;25.53;14.10;;;;;;;;;;5048605;28;20775;-67
2022/03/20 05:31:47;;;;;;;22.37;12.00;;;;;;;;;;5050858;28;20044;-67
2022/03/20 05:34:13;;;;;;;23.60;13.57;;;;;;;;;;5041696;28;20299;-67
2022/03/20 05:36:39;;;;;;;22.10;13.80;;;;;;;;;;5038669;28;20653;-67
2022/03/20 05:39:05;;;;;;;26.27;14.67;;;;;;;;;;5040732;28;20072;-65
2022/03/20 05:41:47;;;;;;;24.50;12.97;;;;;;;;;;5038208;28;20921;-66
2022/03/20 05:44:16;;;;;;;26.23;16.20;;;;;;;;;;5039074;28;20518;-65
2022/03/20 05:46:52;;;;;;;25.57;13.97;;;;;;;;;;5042023;28;20271;-65
2022/03/20 05:49:21;;;;;;;23.93;12.10;;;;;;;;;;5039459;28;20284;-66
2022/03/20 05:51:48;;;;;;;25.07;14.00;;;;;;;;;;5037199;28;20292;-65
2022/03/20 05:54:15;;;;;;;25.13;15.33;;;;;;;;;;5041977;28;20386;-65
2022/03/20 05:59:26;;;;;;;25.93;13.80;;;;;;;;;;5040572;28;20291;-65
2022/03/20 06:01:52;;;;;;;24.30;14.03;;;;;;;;;;5039882;28;20272;-65
2022/03/20 06:04:18;;;;;;;22.77;13.40;;;;;;;;;;5036012;28;20303;-65
2022/03/20 06:06:44;;;;;;;24.63;13.27;;;;;;;;;;5039198;28;20069;-65
2022/03/20 06:09:11;;;;;;;25.87;14.43;;;;;;;;;;5038124;28;20280;-65
2022/03/20 06:11:37;;;;;;;23.17;13.83;;;;;;;;;;5040015;28;20503;-65
2022/03/20 06:14:03;;;;;;;22.03;12.87;;;;;;;;;;5043739;28;20291;-65
2022/03/20 06:16:30;;;;;;;25.13;16.07;;;;;;;;;;5041523;28;20328;-65
2022/03/20 06:18:56;;;;;;;24.60;14.63;;;;;;;;;;5051748;28;20280;-65
2022/03/20 06:21:23;;;;;;;24.87;14.97;;;;;;;;;;5051899;28;20315;-65
2022/03/20 06:23:49;;;;;;;24.20;14.57;;;;;;;;;;5052117;28;20630;-65
2022/03/20 06:26:17;;;;;;;24.27;15.40;;;;;;;;;;5052097;28;20284;-65
2022/03/20 06:28:43;;;;;;;28.60;14.83;;;;;;;;;;5051671;28;20829;-65
2022/03/20 06:31:12;;;;;;;23.93;15.17;;;;;;;;;;5051927;28;20280;-65
2022/03/20 06:33:38;;;;;;;26.10;13.80;;;;;;;;;;5051195;28;20284;-65
2022/03/20 06:36:05;;;;;;;23.03;14.37;;;;;;;;;;5051795;28;20057;-65
2022/03/20 06:38:32;;;;;;;22.00;13.23;;;;;;;;;;5051487;28;20291;-65
2022/03/20 06:40:58;;;;;;;28.77;14.00;;;;;;;;;;5051778;28;20298;-65
2022/03/20 06:43:24;;;;;;;21.60;13.07;;;;;;;;;;5051597;28;20782;-65
2022/03/20 06:45:53;;;;;;;26.50;14.80;;;;;;;;;;5050875;28;20095;-66
2022/03/20 06:48:19;;;;;;;25.07;15.67;;;;;;;;;;5051769;28;20048;-66
2022/03/20 06:50:45;;;;;;;24.17;14.60;;;;;;;;;;5051375;28;20053;-65
2022/03/20 06:53:11;;;;;;;25.53;14.60;;;;;;;;;;5051516;28;20049;-65
2022/03/20 06:55:38;;;;;;;21.47;14.17;;;;;;;;;;5051012;28;20140;-65
2022/03/20 06:58:04;;;;;;;23.63;13.47;;;;;;;;;;5051278;28;20475;-65
2022/03/20 07:00:31;;;;;;;24.13;14.67;;;;;;;;;;5051326;28;20084;-65
2022/03/20 07:02:58;;;;;;;24.70;14.10;;;;;;;;;;5051082;28;20037;-65
2022/03/20 07:05:24;;;;;;;24.40;13.27;;;;;;;;;;5051068;28;20410;-65
2022/03/20 07:07:51;;;;;;;22.70;13.90;;;;;;;;;;5051129;28;20057;-66
2022/03/20 07:10:24;;;;;;;26.27;15.43;;;;;;;;;;5051300;28;20072;-66
2022/03/20 07:12:50;;;;;;;21.75;13.65;;;;;;;;;;5050785;28;20143;-65
2022/03/20 07:15:18;;;;;;;23.93;13.73;;;;;;;;;;5050997;28;20110;-66
2022/03/20 07:17:45;;;;;;;24.20;15.40;;;;;;;;;;5050885;28;20045;-65
2022/03/20 07:20:13;;;;;;;24.43;15.10;;;;;;;;;;5050770;28;20078;-66
2022/03/20 07:22:40;;;;;;;24.43;13.80;;;;;;;;;;5049487;28;20063;-65
2022/03/20 07:30:36;;;;;;;26.80;13.63;;;;;;;;;;5050752;28;20041;-65
2022/03/20 07:33:02;;;;;;;21.80;13.57;;;;;;;;;;5050422;28;20053;-65
2022/03/20 07:35:28;;;;;;;23.17;14.63;;;;;;;;;;5050363;28;20079;-65
2022/03/20 07:37:54;;;;;;;24.27;13.70;;;;;;;;;;5050542;28;20040;-65
2022/03/20 07:40:22;;;;;;;25.43;14.57;;;;;;;;;;5050301;28;20135;-66
2022/03/20 07:42:47;;;;;;;24.90;14.97;;;;;;;;;;5050059;28;20174;-65
2022/03/20 07:45:13;;;;;;;23.50;14.53;;;;;;;;;;5050471;28;20081;-65
2022/03/20 07:47:39;;;;;;;21.93;13.90;;;;;;;;;;5050414;28;20084;-66
2022/03/20 07:50:08;;;;;;;27.20;14.73;;;;;;;;;;5049999;28;20155;-65
2022/03/20 07:52:35;;;;;;;25.70;15.53;;;;;;;;;;5049327;28;20139;-66
2022/03/20 07:55:01;;;;;;;22.07;13.63;;;;;;;;;;5050050;28;20052;-66
2022/03/20 07:57:29;;;;;;;25.50;14.93;;;;;;;;;;5048905;28;20621;-66
2022/03/20 07:59:56;;;;;;;22.00;13.80;;;;;;;;;;5050078;28;20118;-65
2022/03/20 08:02:23;;;;;;;24.03;14.10;;;;;;;;;;5049968;28;20091;-66
2022/03/20 08:04:51;;;;;;;22.13;14.37;;;;;;;;;;5050102;28;20080;-66
2022/03/20 08:07:19;;;;;;;22.57;14.30;;;;;;;;;;5050386;28;20096;-66
2022/03/20 08:09:45;;;;;;;24.97;15.63;;;;;;;;;;5050018;28;20053;-66
2022/03/20 08:12:11;;;;;;;28.27;16.13;;;;;;;;;;5049936;28;20041;-66
2022/03/20 08:14:39;;;;;;;24.40;13.33;;;;;;;;;;5049320;28;20147;-66
2022/03/20 08:17:08;;;;;;;25.03;15.43;;;;;;;;;;5049831;28;20051;-66
2022/03/20 08:19:34;;;;;;;25.83;15.50;;;;;;;;;;5049671;28;20160;-66
2022/03/20 08:22:03;;;;;;;25.93;17.47;;;;;;;;;;5049819;28;20049;-66
2022/03/20 08:24:29;;;;;;;31.97;15.80;;;;;;;;;;5049678;28;20052;-66
2022/03/20 08:26:55;;;;;;;25.23;14.10;;;;;;;;;;5049297;28;20084;-66
2022/03/20 08:29:21;;;;;;;24.60;13.37;;;;;;;;;;5049191;28;20094;-66
2022/03/20 08:31:47;;;;;;;28.00;15.37;;;;;;;;;;5049285;28;20044;-65
2022/03/20 08:34:15;;;;;;;27.77;14.83;;;;;;;;;;5049359;28;20128;-65
2022/03/20 08:36:41;;;;;;;24.10;15.67;;;;;;;;;;5049462;28;20583;-66
2022/03/20 08:39:07;;;;;;;24.50;15.03;;;;;;;;;;5049165;28;20048;-66
2022/03/20 08:41:34;;;;;;;27.87;16.07;;;;;;;;;;5049225;28;20397;-66
2022/03/20 08:44:00;;;;;;;24.20;16.20;;;;;;;;;;5049468;28;20051;-65
2022/03/20 08:46:26;;;;;;;22.70;15.20;;;;;;;;;;5049074;28;20099;-65
2022/03/20 08:48:52;;;;;;;22.93;15.13;;;;;;;;;;5049264;28;20053;-66
2022/03/20 08:51:18;;;;;;;23.30;14.63;;;;;;;;;;5048803;28;20041;-66
2022/03/20 08:53:44;;;;;;;23.60;14.47;;;;;;;;;;5049083;28;20041;-66
2022/03/20 08:56:10;;;;;;;24.63;15.10;;;;;;;;;;5049043;28;20415;-66
2022/03/20 08:58:36;;;;;;;26.23;15.57;;;;;;;;;;5048904;28;20049;-66
2022/03/20 09:01:02;;;;;;;24.83;15.37;;;;;;;;;;5048845;28;20495;-66
2022/03/20 09:03:29;;;;;;;25.93;15.10;;;;;;;;;;5048667;28;20051;-66
2022/03/20 09:05:55;;;;;;;22.27;15.37;;;;;;;;;;5049117;28;20102;-66
2022/03/20 09:08:21;;;;;;;24.27;13.90;;;;;;;;;;5047706;28;20045;-66
2022/03/20 09:10:51;;;;;;;27.53;16.10;;;;;;;;;;5048887;28;20571;-66
2022/03/20 09:13:17;;;;;;;22.67;14.37;;;;;;;;;;5049106;28;20075;-66
2022/03/20 09:15:43;;;;;;;21.97;14.97;;;;;;;;;;5048001;28;20710;-66
2022/03/20 09:20:54;;;;;;;24.03;14.57;;;;;;;;;;5048679;28;20049;-66
2022/03/20 09:23:20;;;;;;;27.83;15.70;;;;;;;;;;5048974;28;20051;-66
2022/03/20 09:25:46;;;;;;;23.87;15.50;;;;;;;;;;5048289;28;20438;-66
2022/03/20 09:28:13;;;;;;;24.10;15.50;;;;;;;;;;5048671;28;20056;-66
2022/03/20 09:30:41;;;;;;;23.23;14.20;;;;;;;;;;5048820;28;20139;-66
2022/03/20 09:33:08;;;;;;;25.87;15.73;;;;;;;;;;5048476;28;20400;-66
2022/03/20 09:35:34;;;;;;;20.63;14.80;;;;;;;;;;5030265;28;20053;-66
2022/03/20 09:38:01;;;;;;;22.17;15.00;;;;;;;;;;5048331;28;20814;-66
2022/03/20 09:40:27;;;;;;;27.40;15.30;;;;;;;;;;5048420;28;20041;-66
2022/03/20 09:42:53;;;;;;;30.70;17.20;;;;;;;;;;5048853;28;20045;-66
2022/03/20 09:45:20;;;;;;;22.97;16.73;;;;;;;;;;5048091;28;20049;-66
2022/03/20 09:47:46;;;;;;;27.63;16.57;;;;;;;;;;5048265;28;20083;-66
2022/03/20 09:50:13;;;;;;;23.97;16.23;;;;;;;;;;5048293;28;20160;-66
2022/03/20 09:52:40;;;;;;;22.33;14.90;;;;;;;;;;5048138;28;20041;-66
2022/03/20 09:55:07;;;;;;;22.17;16.07;;;;;;;;;;5048190;28;20135;-66
2022/03/20 09:57:33;;;;;;;22.03;16.37;;;;;;;;;;5048411;28;20045;-66
2022/03/20 10:00:01;;;;;;;25.07;15.33;;;;;;;;;;5048324;28;20190;-66
2022/03/20 10:02:28;;;;;;;27.43;16.60;;;;;;;;;;5048453;28;20049;-66
2022/03/20 10:04:59;;;;;;;26.07;16.83;;;;;;;;;;5048287;28;20893;-66
2022/03/20 10:07:29;;;;;;;24.93;15.67;;;;;;;;;;5048182;28;20507;-66
2022/03/20 10:10:08;;;;;;;24.37;16.17;;;;;;;;;;5047920;28;20052;-66
2022/03/20 10:12:35;;;;;;;27.73;16.77;;;;;;;;;;5047934;28;20052;-66
2022/03/20 10:15:02;;;;;;;28.40;16.53;;;;;;;;;;5047790;28;20049;-66
2022/03/20 10:17:29;;;;;;;26.63;18.03;;;;;;;;;;5048123;28;20374;-66
2022/03/20 10:19:56;;;;;;;27.30;15.83;;;;;;;;;;5048178;28;20060;-66
2022/03/20 10:22:22;;;;;;;24.20;16.33;;;;;;;;;;5047867;28;20044;-66
2022/03/20 10:24:50;;;;;;;28.30;16.30;;;;;;;;;;5047941;28;20525;-66
2022/03/20 10:27:16;;;;;;;28.27;17.10;;;;;;;;;;5048198;28;20502;-66
2022/03/20 10:29:51;;;;;;;26.27;16.37;;;;;;;;;;5047203;28;20669;-66
2022/03/20 10:32:18;;;;;;;25.50;16.13;;;;;;;;;;5048174;28;20427;-66
2022/03/20 10:34:48;;;;;;;25.30;16.77;;;;;;;;;;5047627;28;20052;-66
2022/03/20 10:37:15;;;;;;;25.20;16.03;;;;;;;;;;5047813;28;20539;-66
2022/03/20 10:39:42;;;;;;;26.40;17.27;;;;;;;;;;5047616;28;20053;-66
2022/03/20 10:42:11;;;;;;;27.03;16.47;;;;;;;;;;5048128;28;20072;-66
2022/03/20 10:44:38;;;;;;;22.43;16.37;;;;;;;;;;5047892;28;20048;-66
2022/03/20 10:47:09;;;;;;;22.97;16.23;;;;;;;;;;5047409;28;20144;-66
2022/03/20 10:49:36;;;;;;;25.37;17.20;;;;;;;;;;5047781;28;20557;-66
2022/03/20 10:52:03;;;;;;;24.20;16.57;;;;;;;;;;5047795;28;20041;-66
2022/03/20 10:54:58;;;;;;;26.60;16.83;;;;;;;;;;5047751;28;20044;-66
2022/03/20 10:57:34;;;;;;;24.13;17.93;;;;;;;;;;5045180;28;20126;-66
2022/03/20 11:00:01;;;;;;;25.50;17.53;;;;;;;;;;5051398;28;20053;-66
2022/03/20 11:02:27;;;;;;;23.77;17.13;;;;;;;;;;5050890;28;20152;-66
2022/03/20 11:04:54;;;;;;;26.00;18.00;;;;;;;;;;5051402;28;20052;-66
2022/03/20 11:07:21;;;;;;;27.10;18.17;;;;;;;;;;5051195;28;20037;-66
2022/03/20 11:09:48;;;;;;;26.47;18.13;;;;;;;;;;5051194;28;20080;-66
2022/03/20 11:12:17;;;;;;;25.63;17.37;;;;;;;;;;5051162;28;20522;-66
2022/03/20 11:14:43;;;;;;;24.20;18.13;;;;;;;;;;5051038;28;20048;-66
2022/03/20 11:17:13;;;;;;;24.50;17.40;;;;;;;;;;5050791;28;20422;-66
2022/03/20 11:19:43;;;;;;;25.90;18.30;;;;;;;;;;5050903;28;20445;-66
2022/03/20 11:22:10;;;;;;;26.33;18.53;;;;;;;;;;5050654;28;20053;-66
2022/03/20 11:24:37;;;;;;;26.60;17.93;;;;;;;;;;5050542;28;20127;-66
2022/03/20 11:27:04;;;;;;;25.37;18.17;;;;;;;;;;5049696;28;20045;-67
2022/03/20 11:29:32;;;;;;;26.80;18.23;;;;;;;;;;5050813;28;20427;-66
2022/03/20 11:31:59;;;;;;;24.70;17.13;;;;;;;;;;5050658;28;20098;-66
2022/03/20 11:34:26;;;;;;;27.10;17.67;;;;;;;;;;5050631;28;20072;-66
2022/03/20 11:37:01;;;;;;;29.63;18.93;;;;;;;;;;5050234;28;20053;-66
2022/03/20 11:39:27;;;;;;;24.07;17.37;;;;;;;;;;5050773;28;20053;-66
2022/03/20 11:42:11;;;;;;;28.67;18.60;;;;;;;;;;5050422;28;20816;-66
2022/03/20 11:44:50;;;;;;;30.40;18.80;;;;;;;;;;5050424;28;20081;-66
2022/03/20 11:47:16;;;;;;;26.87;20.03;;;;;;;;;;5050271;28;20054;-66
2022/03/20 11:49:42;;;;;;;24.50;18.07;;;;;;;;;;5050265;28;20041;-65
2022/03/20 11:52:09;;;;;;;30.50;18.73;;;;;;;;;;5050273;28;20084;-65
2022/03/20 11:54:41;;;;;;;26.27;18.37;;;;;;;;;;5050321;28;20075;-65
2022/03/20 11:57:26;;;;;;;24.00;18.07;;;;;;;;;;5049031;28;20052;-65
2022/03/20 11:59:54;;;;;;;25.17;17.93;;;;;;;;;;5049976;28;20388;-65
2022/03/20 12:02:21;;;;;;;25.33;17.87;;;;;;;;;;5050378;28;20063;-65
2022/03/20 12:05:05;;;;;;;28.27;19.63;;;;;;;;;;5050042;28;20472;-65
2022/03/20 12:07:34;;;;;;;23.63;18.93;;;;;;;;;;5049124;28;20411;-65
2022/03/20 12:10:03;;;;;;;28.37;20.50;;;;;;;;;;5050040;28;20044;-65
2022/03/20 12:12:47;;;;;;;29.07;18.30;;;;;;;;;;5049543;28;20127;-65
2022/03/20 12:15:13;;;;;;;;;;;;;;;;;;5049907;28;20049;-65
2022/03/20 12:17:58;;;;;;;26.23;19.53;;;;;;;;;;5049124;28;20470;-65
2022/03/20 12:20:43;;;;;;;29.23;20.40;;;;;;;;;;5049764;28;20080;-65
2022/03/20 12:23:27;;;;;;;32.77;19.97;;;;;;;;;;5049738;28;20060;-65
2022/03/20 12:25:54;;;;;;;25.27;18.60;;;;;;;;;;5049727;28;20049;-65
2022/03/20 12:28:30;;;;;;;27.43;19.67;;;;;;;;;;5049288;28;20048;-65
2022/03/20 12:30:56;;;;;;;24.83;18.73;;;;;;;;;;5049474;28;20049;-65
2022/03/20 12:33:23;;;;;;;28.07;19.10;;;;;;;;;;5048323;28;20135;-65
2022/03/20 12:35:50;;;;;;;30.00;20.43;;;;;;;;;;5049156;28;20070;-65
2022/03/20 12:38:35;;;;;;;25.50;19.47;;;;;;;;;;5049355;28;20135;-65
2022/03/20 12:41:09;;;;;;;25.03;19.53;;;;;;;;;;5049249;28;20045;-65
2022/03/20 12:43:35;;;;;;;28.35;20.48;;;;;;;;;;5049434;28;20055;-65
2022/03/20 12:46:01;;;;;;;27.53;20.30;;;;;;;;;;5049541;28;20419;-65
2022/03/20 12:48:31;;;;;;;27.60;20.10;;;;;;;;;;5049000;28;20056;-65
2022/03/20 12:51:02;;;;;;;28.27;20.50;;;;;;;;;;5048888;28;20052;-65
2022/03/20 12:53:37;;;;;;;28.30;19.73;;;;;;;;;;5048626;28;20048;-65
2022/03/20 12:56:22;;;;;;;29.70;21.63;;;;;;;;;;5049240;28;20041;-65
2022/03/20 12:58:48;;;;;;;33.13;20.67;;;;;;;;;;5049084;28;20045;-65
2022/03/20 13:01:14;;;;;;;32.87;20.03;;;;;;;;;;5048812;28;20090;-65
2022/03/20 13:03:42;;;;;;;26.57;20.00;;;;;;;;;;5048660;28;20059;-65
2022/03/20 13:06:08;;;;;;;27.13;19.33;;;;;;;;;;5049075;28;20049;-65
2022/03/20 13:08:35;;;;;;;26.53;19.40;;;;;;;;;;5048595;28;20043;-65
2022/03/20 13:11:04;;;;;;;27.43;20.33;;;;;;;;;;5047744;28;20048;-65
2022/03/20 13:13:33;;;;;;;29.07;20.23;;;;;;;;;;5048724;28;20059;-65
2022/03/20 13:16:00;;;;;;;27.23;20.43;;;;;;;;;;5048616;28;20132;-65
2022/03/20 13:18:28;;;;;;;26.53;18.47;;;;;;;;;;5048145;28;20044;-65
2022/03/20 13:20:54;;;;;;;27.23;19.63;;;;;;;;;;5047791;28;20037;-65
2022/03/20 13:23:22;;;;;;;29.80;20.03;;;;;;;;;;5048969;28;20139;-65
2022/03/20 13:25:51;;;;;;;29.67;19.13;;;;;;;;;;5030152;28;20041;-65
2022/03/20 13:28:28;;;;;;;29.43;19.73;;;;;;;;;;5048814;28;20061;-65
2022/03/20 13:30:56;;;;;;;26.63;19.80;;;;;;;;;;5048457;28;20111;-65
2022/03/20 13:33:32;;;;;;;26.67;18.93;;;;;;;;;;5048309;28;20065;-65
2022/03/20 13:35:59;;;;;;;26.80;20.63;;;;;;;;;;5048379;28;20531;-65
2022/03/20 13:38:31;;;;;;;25.10;19.30;;;;;;;;;;5048138;28;20045;-65
2022/03/20 13:41:05;;;;;;;27.83;21.20;;;;;;;;;;5048438;28;20100;-65
2022/03/20 13:43:31;;;;;;;;;;;;;;;;;;5048837;28;20092;-65
2022/03/20 13:46:09;;;;;;;42.90;21.50;;;;;;;;;;5048498;28;19967;-66
2022/03/20 13:48:36;;;;;;;27.23;20.37;;;;;;;;;;5048389;28;20041;-66
2022/03/20 13:51:04;;;;;;;29.00;19.47;;;;;;;;;;5048167;28;20151;-66
2022/03/20 13:53:31;;;;;;;30.20;21.83;;;;;;;;;;5048328;28;20059;-66
2022/03/20 13:55:57;;;;;;;28.27;20.70;;;;;;;;;;5048146;28;20131;-66
2022/03/20 13:58:23;;;;;;;27.03;19.33;;;;;;;;;;5048222;28;20064;-65
2022/03/20 14:00:58;;;;;;;26.40;19.83;;;;;;;;;;5047977;28;20041;-65
2022/03/20 14:03:30;;;;;;;26.27;19.97;;;;;;;;;;5048083;28;20049;-66
2022/03/20 14:05:56;;;;;;;31.83;20.40;;;;;;;;;;5048117;28;20045;-65
2022/03/20 14:08:23;;;;;;;28.30;20.00;;;;;;;;;;5048272;28;20063;-65
2022/03/20 14:10:53;;;;;;;31.20;20.27;;;;;;;;;;5047120;28;20041;-65
2022/03/20 14:13:34;;;;;;;29.93;21.03;;;;;;;;;;5048045;28;20045;-65
2022/03/20 14:16:06;;;;;;;30.30;21.93;;;;;;;;;;5047455;28;20526;-65
2022/03/20 14:18:51;;;;;;;30.27;20.40;;;;;;;;;;5047727;28;20041;-65
2022/03/20 14:21:20;;;;;;;27.53;20.20;;;;;;;;;;5048211;28;20102;-65
2022/03/20 14:23:56;;;;;;;29.87;20.93;;;;;;;;;;5047876;28;20048;-65
2022/03/20 14:26:23;;;;;;;27.93;19.10;;;;;;;;;;5047904;28;20063;-65
2022/03/20 14:29:08;;;;;;;32.27;21.07;;;;;;;;;;5047783;28;20037;-65
2022/03/20 14:40:05;;;;;;;27.83;19.47;;;;;;;;;;5051512;28;20045;-65
2022/03/20 14:42:34;;;;;;;30.03;20.57;;;;;;;;;;5050215;28;20049;-65
2022/03/20 14:45:03;;;;;;;29.50;20.50;;;;;;;;;;5050977;28;20053;-65
2022/03/20 14:47:29;;;;;;;26.27;19.30;;;;;;;;;;5051497;28;20452;-65
2022/03/20 14:49:56;;;;;;;31.30;20.80;;;;;;;;;;5051427;28;20045;-65
2022/03/20 14:52:23;;;;;;;29.53;20.53;;;;;;;;;;5050907;28;20049;-65
2022/03/20 14:54:52;;;;;;;29.53;20.17;;;;;;;;;;5051434;28;20056;-65
2022/03/20 14:57:19;;;;;;;28.20;20.37;;;;;;;;;;5051168;28;20388;-66
2022/03/20 14:59:45;;;;;;;28.60;21.37;;;;;;;;;;5051036;28;20526;-65
2022/03/20 15:02:12;;;;;;;29.97;19.70;;;;;;;;;;5051368;28;20488;-65
2022/03/20 15:04:39;;;;;;;32.23;21.77;;;;;;;;;;5051043;28;20102;-65
2022/03/20 15:07:06;;;;;;;33.47;22.63;;;;;;;;;;5050796;28;20511;-65
2022/03/20 15:12:18;;;;;;;30.10;20.57;;;;;;;;;;5050878;28;20045;-65